createdAt,value
2022-11-18T00:01:14.309Z,6.38
2022-11-18T00:03:42.047Z,7.35
2022-11-18T00:06:13.746Z,8.15
2022-11-18T00:08:40.833Z,6.93
2022-11-18T00:11:46.797Z,6.93
2022-11-18T00:16:54.261Z,9.07
2022-11-18T00:19:25.391Z,9.02
2022-11-18T00:21:52.781Z,6.72
2022-11-18T00:24:20.880Z,5.07
2022-11-18T00:26:48.291Z,6.43
2022-11-18T00:29:16.666Z,7.43
2022-11-18T00:31:43.976Z,10.05
2022-11-18T00:34:16.812Z,7.93
2022-11-18T00:36:45.866Z,8.75
2022-11-18T00:39:15.880Z,5.32
2022-11-18T00:42:01.237Z,5.93
2022-11-18T00:44:28.123Z,8.75
2022-11-18T00:46:55.534Z,5.50
2022-11-18T00:49:22.827Z,6.05
2022-11-18T00:51:49.619Z,4.90
2022-11-18T00:54:16.642Z,4.22
2022-11-18T00:56:43.796Z,6.43
2022-11-18T00:59:10.559Z,4.20
2022-11-18T01:01:37.549Z,3.35
2022-11-18T01:04:04.708Z,6.75
2022-11-18T01:06:31.786Z,5.38
2022-11-18T01:08:58.558Z,3.83
2022-11-18T01:11:44.300Z,4.68
2022-11-18T01:14:11.168Z,5.47
2022-11-18T01:16:38.129Z,7.85
2022-11-18T01:19:04.961Z,5.03
2022-11-18T01:21:31.749Z,5.43
2022-11-18T01:23:58.558Z,3.85
2022-11-18T01:26:25.427Z,3.47
2022-11-18T01:28:57.755Z,4.93
2022-11-18T01:31:24.956Z,6.55
2022-11-18T01:33:52.394Z,4.07
2022-11-18T01:36:22.923Z,3.30
2022-11-18T01:38:50.832Z,2.40
2022-11-18T01:41:20.107Z,3.08
2022-11-18T01:43:55.547Z,4.07
2022-11-18T01:46:25.201Z,1.75
2022-11-18T01:49:14.649Z,2.60
2022-11-18T01:51:55.677Z,2.50
2022-11-18T01:54:37.707Z,1.48
2022-11-18T01:57:12.810Z,2.20
2022-11-18T01:59:42.822Z,2.75
2022-11-18T02:02:14.018Z,1.15
2022-11-18T02:04:50.441Z,1.40
2022-11-18T02:07:17.851Z,2.10
2022-11-18T02:09:44.968Z,2.45
2022-11-18T02:12:12.617Z,2.30
2022-11-18T02:14:44.336Z,3.97
2022-11-18T02:18:02.151Z,2.03
2022-11-18T02:20:33.238Z,3.13
2022-11-18T02:23:52.427Z,1.55
2022-11-18T02:26:59.299Z,2.20
2022-11-18T02:30:12.726Z,1.40
2022-11-18T02:32:57.039Z,1.55
2022-11-18T02:35:43.871Z,3.50
2022-11-18T02:38:24.963Z,1.70
2022-11-18T02:41:01.481Z,2.65
2022-11-18T02:43:41.272Z,2.67
2022-11-18T02:46:13.680Z,2.92
2022-11-18T02:48:48.903Z,1.27
2022-11-18T02:51:25.825Z,1.77
2022-11-18T02:53:57.438Z,1.90
2022-11-18T02:56:27.190Z,3.63
2022-11-18T02:58:54.015Z,3.80
2022-11-18T03:01:27.468Z,3.28
2022-11-18T03:03:54.616Z,2.63
2022-11-18T03:06:45.653Z,4.43
2022-11-18T03:09:35.614Z,3.28
2022-11-18T03:12:19.093Z,3.20
2022-11-18T03:15:19.457Z,4.32
2022-11-18T03:18:01.190Z,2.95
2022-11-18T03:20:31.152Z,4.57
2022-11-18T03:23:10.130Z,4.43
2022-11-18T03:25:56.468Z,2.85
2022-11-18T03:28:40.760Z,2.63
2022-11-18T03:31:34.126Z,5.32
2022-11-18T03:34:15.271Z,2.60
2022-11-18T03:36:51.766Z,3.97
2022-11-18T03:39:22.261Z,4.47
2022-11-18T03:41:56.377Z,3.40
2022-11-18T03:44:34.893Z,4.23
2022-11-18T03:47:10.870Z,6.20
2022-11-18T03:49:53.415Z,3.15
2022-11-18T03:52:26.632Z,3.97
2022-11-18T03:54:57.824Z,5.95
2022-11-18T03:57:45.718Z,8.63
2022-11-18T04:00:16.011Z,4.40
2022-11-18T04:02:44.183Z,5.63
2022-11-18T04:05:13.379Z,6.47
2022-11-18T04:08:00.201Z,8.30
2022-11-18T04:10:47.129Z,4.40
2022-11-18T04:13:31.650Z,7.03
2022-11-18T04:15:58.606Z,5.70
2022-11-18T04:18:25.461Z,5.60
2022-11-18T04:20:52.384Z,5.47
2022-11-18T04:23:19.472Z,6.07
2022-11-18T04:25:46.425Z,5.03
2022-11-18T04:28:13.306Z,8.07
2022-11-18T04:30:40.091Z,4.47
2022-11-18T04:33:06.907Z,6.20
2022-11-18T04:35:33.708Z,8.98
2022-11-18T04:38:00.556Z,7.30
2022-11-18T04:40:27.328Z,8.38
2022-11-18T04:42:54.118Z,7.30
2022-11-18T04:45:20.927Z,5.70
2022-11-18T04:47:48.067Z,7.65
2022-11-18T04:50:14.995Z,5.70
2022-11-18T04:52:42.043Z,8.60
2022-11-18T04:55:09.156Z,8.00
2022-11-18T04:57:35.938Z,4.35
2022-11-18T05:00:02.918Z,6.75
2022-11-18T05:02:29.789Z,3.25
2022-11-18T05:04:56.560Z,5.40
2022-11-18T05:07:23.367Z,4.88
2022-11-18T05:09:50.203Z,4.28
2022-11-18T05:12:35.648Z,7.10
2022-11-18T05:15:02.475Z,6.10
2022-11-18T05:17:29.341Z,9.25
2022-11-18T05:19:56.324Z,5.05
2022-11-18T05:22:23.125Z,5.50
2022-11-18T05:24:49.876Z,4.00
2022-11-18T05:27:16.898Z,3.33
2022-11-18T05:29:44.015Z,6.60
2022-11-18T05:32:11.226Z,5.50
2022-11-18T05:34:40.936Z,6.80
2022-11-18T05:37:08.166Z,6.35
2022-11-18T05:39:35.011Z,8.10
2022-11-18T05:42:21.148Z,4.95
2022-11-18T05:44:49.860Z,5.85
2022-11-18T05:47:19.975Z,5.68
2022-11-18T05:49:46.769Z,7.35
2022-11-18T05:52:13.611Z,6.13
2022-11-18T05:54:46.940Z,4.93
2022-11-18T05:57:13.697Z,3.58
2022-11-18T05:59:40.455Z,5.47
2022-11-18T06:02:15.971Z,6.65
2022-11-18T06:04:49.639Z,6.63
2022-11-18T06:07:29.402Z,5.43
2022-11-18T06:10:05.017Z,5.55
2022-11-18T06:12:42.197Z,6.93
2022-11-18T06:15:34.900Z,6.65
2022-11-18T06:18:09.601Z,4.60
2022-11-18T06:20:40.332Z,4.07
2022-11-18T06:23:07.231Z,4.80
2022-11-18T06:25:34.558Z,9.02
2022-11-18T06:28:02.867Z,7.85
2022-11-18T06:30:29.664Z,6.40
2022-11-18T06:32:56.517Z,7.35
2022-11-18T06:35:23.393Z,9.25
2022-11-18T06:37:50.224Z,6.63
2022-11-18T06:40:17.503Z,4.47
2022-11-18T06:43:03.007Z,3.58
2022-11-18T06:45:30.429Z,4.50
2022-11-18T06:47:58.914Z,6.22
2022-11-18T06:50:25.831Z,6.85
2022-11-18T06:52:53.324Z,5.28
2022-11-18T06:55:20.627Z,6.57
2022-11-18T06:57:47.488Z,5.85
2022-11-18T07:00:15.478Z,7.50
2022-11-18T07:02:42.246Z,3.67
2022-11-18T07:05:09.165Z,4.20
2022-11-18T07:07:40.502Z,4.40
2022-11-18T07:10:09.635Z,7.60
2022-11-18T07:12:36.423Z,7.82
2022-11-18T07:15:03.516Z,4.97
2022-11-18T07:17:31.637Z,7.65
2022-11-18T07:19:58.495Z,3.55
2022-11-18T07:22:25.235Z,4.65
2022-11-18T07:24:52.015Z,8.10
2022-11-18T07:27:18.812Z,4.78
2022-11-18T07:29:45.951Z,6.97
2022-11-18T07:32:12.774Z,5.97
2022-11-18T07:34:39.568Z,9.88
2022-11-18T07:37:06.382Z,6.03
2022-11-18T07:39:33.167Z,7.20
2022-11-18T07:41:59.949Z,8.52
2022-11-18T07:44:26.727Z,7.30
2022-11-18T07:46:53.527Z,8.85
2022-11-18T07:49:20.705Z,7.93
2022-11-18T07:51:47.678Z,8.35
2022-11-18T07:54:17.264Z,6.05
2022-11-18T07:56:44.355Z,7.18
2022-11-18T07:59:11.158Z,10.48
2022-11-18T08:01:38.364Z,7.90
2022-11-18T08:04:11.909Z,11.20
2022-11-18T08:06:39.911Z,7.57
2022-11-18T08:09:08.289Z,6.57
2022-11-18T08:11:35.949Z,8.85
2022-11-18T08:14:02.802Z,8.35
2022-11-18T08:16:29.883Z,8.13
2022-11-18T08:18:59.836Z,9.75
2022-11-18T08:21:26.647Z,7.70
2022-11-18T08:23:57.294Z,9.02
2022-11-18T08:26:25.295Z,5.97
2022-11-18T08:28:52.284Z,13.68
2022-11-18T08:31:24.485Z,5.93
2022-11-18T08:34:01.045Z,9.45
2022-11-18T08:36:31.158Z,12.00
2022-11-18T08:39:00.400Z,8.60
2022-11-18T08:41:39.949Z,8.75
2022-11-18T08:44:09.940Z,4.47
2022-11-18T08:46:36.742Z,10.73
2022-11-18T08:49:04.048Z,9.13
2022-11-18T08:51:31.026Z,4.80
2022-11-18T08:53:58.147Z,7.35
2022-11-18T08:56:26.264Z,5.63
2022-11-18T08:58:54.559Z,7.43
2022-11-18T09:01:21.714Z,7.57
2022-11-18T09:03:49.422Z,6.43
2022-11-18T09:06:22.831Z,5.75
2022-11-18T09:08:49.664Z,7.38
2022-11-18T09:11:23.766Z,8.30
2022-11-18T09:16:49.654Z,8.20
2022-11-18T09:19:45.487Z,5.78
2022-11-18T09:22:05.410Z,5.15
2022-11-18T09:24:32.936Z,7.63
2022-11-18T09:27:04.884Z,5.57
2022-11-18T09:29:32.778Z,4.97
2022-11-18T09:32:02.190Z,6.03
2022-11-18T09:34:29.584Z,8.00
2022-11-18T09:36:56.910Z,5.50
2022-11-18T09:39:25.539Z,8.40
2022-11-18T09:42:23.508Z,6.55
2022-11-18T09:45:44.281Z,7.60
2022-11-18T09:48:20.513Z,6.13
2022-11-18T09:50:50.143Z,6.40
2022-11-18T09:53:25.489Z,5.35
2022-11-18T09:55:53.938Z,5.35
2022-11-18T09:58:36.225Z,10.85
2022-11-18T10:01:09.043Z,7.78
2022-11-18T10:03:37.302Z,5.63
2022-11-18T10:06:10.961Z,4.38
2022-11-18T10:09:08.850Z,7.32
2022-11-18T10:11:58.495Z,8.63
2022-11-18T10:14:43.762Z,6.05
2022-11-18T10:17:46.956Z,7.70
2022-11-18T10:20:33.368Z,6.03
2022-11-18T10:23:17.642Z,5.57
2022-11-18T10:25:44.757Z,7.10
2022-11-18T10:28:23.105Z,6.13
2022-11-18T10:30:50.540Z,7.90
2022-11-18T10:33:21.650Z,9.43
2022-11-18T10:35:50.548Z,8.18
2022-11-18T10:38:21.265Z,6.03
2022-11-18T10:40:51.267Z,8.20
2022-11-18T10:43:55.167Z,4.53
2022-11-18T10:46:39.403Z,5.50
2022-11-18T10:49:09.236Z,6.85
2022-11-18T10:51:39.164Z,6.80
2022-11-18T10:54:21.615Z,6.38
2022-11-18T10:56:58.478Z,6.78
2022-11-18T10:59:47.342Z,5.40
2022-11-18T11:02:41.848Z,5.43
2022-11-18T11:05:23.806Z,6.95
2022-11-18T11:08:37.579Z,6.65
2022-11-18T11:11:04.912Z,4.53
2022-11-18T11:13:32.876Z,4.75
2022-11-18T11:16:04.174Z,6.95
2022-11-18T11:18:42.687Z,3.78
2022-11-18T11:21:19.177Z,3.20
2022-11-18T11:23:47.311Z,3.75
2022-11-18T11:29:37.799Z,4.80
2022-11-18T11:32:38.438Z,3.50
2022-11-18T11:35:23.622Z,6.28
2022-11-18T11:40:55.741Z,4.13
2022-11-18T11:43:51.082Z,7.80
2022-11-18T11:46:29.952Z,6.93
2022-11-18T11:49:41.478Z,4.05
2022-11-18T11:52:23.585Z,4.50
2022-11-18T11:55:15.203Z,5.03
2022-11-18T11:58:15.398Z,5.13
2022-11-18T12:01:10.227Z,5.57
2022-11-18T12:03:51.708Z,4.70
2022-11-18T12:06:19.498Z,4.40
2022-11-18T12:09:16.419Z,3.55
2022-11-18T12:12:04.358Z,5.65
2022-11-18T12:14:51.000Z,3.35
2022-11-18T12:17:37.433Z,6.40
2022-11-18T12:20:42.692Z,5.25
2022-11-18T12:23:13.372Z,3.10
2022-11-18T12:25:55.041Z,3.50
2022-11-18T12:28:37.389Z,2.67
2022-11-18T12:31:16.503Z,3.33
2022-11-18T12:33:49.074Z,4.80
2022-11-18T12:36:46.013Z,3.40
2022-11-18T12:39:25.444Z,7.55
2022-11-18T12:42:14.389Z,2.72
2022-11-18T12:44:43.401Z,4.00
2022-11-18T12:47:12.997Z,4.53
2022-11-18T12:49:45.845Z,2.72
2022-11-18T12:52:31.043Z,3.60
2022-11-18T12:55:25.672Z,3.13
2022-11-18T12:57:52.693Z,3.85
2022-11-18T13:00:31.355Z,5.53
2022-11-18T13:03:01.638Z,5.47
2022-11-18T13:05:35.032Z,3.80
2022-11-18T13:08:15.072Z,3.05
2022-11-18T13:11:26.840Z,2.75
2022-11-18T13:14:14.816Z,3.78
2022-11-18T13:17:02.650Z,4.15
2022-11-18T13:19:29.430Z,3.30
2022-11-18T13:22:17.228Z,3.90
2022-11-18T13:24:52.743Z,7.82
2022-11-18T13:27:51.726Z,3.45
2022-11-18T13:30:18.715Z,4.22
2022-11-18T13:32:47.813Z,2.42
2022-11-18T13:35:22.262Z,7.75
2022-11-18T13:37:51.900Z,2.85
2022-11-18T13:40:22.544Z,2.75
2022-11-18T13:42:50.354Z,2.80
2022-11-18T13:45:18.159Z,2.53
2022-11-18T13:48:09.636Z,2.75
2022-11-18T13:50:43.821Z,2.72
2022-11-18T13:53:38.430Z,1.50
2022-11-18T13:56:12.776Z,4.00
2022-11-18T14:01:38.837Z,4.18
2022-11-18T14:04:15.557Z,5.43
2022-11-18T14:06:42.557Z,4.20
2022-11-18T14:09:15.939Z,8.40
2022-11-18T14:12:01.256Z,9.60
2022-11-18T14:14:37.778Z,7.22
2022-11-18T14:17:26.549Z,3.97
2022-11-18T14:20:01.401Z,6.25
2022-11-18T14:22:33.676Z,3.55
2022-11-18T14:25:14.742Z,6.20
2022-11-18T14:27:50.654Z,9.07
2022-11-18T14:30:24.555Z,14.75
2022-11-18T14:33:06.574Z,10.77
2022-11-18T14:35:35.132Z,5.63
2022-11-18T14:41:13.389Z,5.97
2022-11-18T14:43:40.897Z,6.72
2022-11-18T14:46:19.778Z,9.25
2022-11-18T14:48:46.776Z,10.40
2022-11-18T14:51:17.491Z,10.60
2022-11-18T14:53:45.136Z,6.63
2022-11-18T14:56:33.132Z,9.18
2022-11-18T14:59:00.010Z,6.57
2022-11-18T15:01:31.061Z,10.02
2022-11-18T15:03:58.256Z,10.27
2022-11-18T15:06:25.170Z,4.30
2022-11-18T15:08:53.502Z,8.68
2022-11-18T15:11:20.636Z,14.07
2022-11-18T15:13:47.907Z,9.73
2022-11-18T15:16:17.629Z,7.75
2022-11-18T15:18:47.954Z,8.30
2022-11-18T15:21:15.115Z,10.40
2022-11-18T15:23:42.576Z,10.70
2022-11-18T15:26:43.957Z,7.15
2022-11-18T15:29:23.528Z,9.45
2022-11-18T15:31:51.630Z,14.43
2022-11-18T15:34:20.891Z,16.00
2022-11-18T15:36:48.415Z,7.93
2022-11-18T15:39:15.714Z,12.27
2022-11-18T15:41:43.251Z,12.82
2022-11-18T15:44:13.400Z,12.57
2022-11-18T15:46:40.679Z,11.65
2022-11-18T15:49:13.176Z,11.13
2022-11-18T15:51:40.436Z,10.40
2022-11-18T15:54:07.218Z,10.05
2022-11-18T15:56:34.590Z,12.02
2022-11-18T15:59:04.255Z,11.55
2022-11-18T16:01:36.559Z,9.70
2022-11-18T16:04:05.897Z,16.50
2022-11-18T16:06:33.450Z,11.77
2022-11-18T16:09:00.865Z,11.90
2022-11-18T16:11:48.073Z,11.90
2022-11-18T16:14:18.374Z,14.18
2022-11-18T16:16:47.992Z,17.05
2022-11-18T16:19:18.471Z,16.65
2022-11-18T16:21:55.334Z,17.52
2022-11-18T16:24:28.798Z,14.82
2022-11-18T16:26:56.247Z,9.15
2022-11-18T16:29:24.320Z,16.08
2022-11-18T16:31:53.127Z,9.90
2022-11-18T16:34:28.297Z,12.45
2022-11-18T16:37:01.369Z,15.38
2022-11-18T16:39:29.530Z,12.70
2022-11-18T16:42:08.508Z,10.65
2022-11-18T16:44:37.021Z,17.50
2022-11-18T16:47:10.528Z,11.93
2022-11-18T16:49:41.597Z,11.50
2022-11-18T16:52:09.325Z,13.43
2022-11-18T16:54:42.933Z,13.20
2022-11-18T16:57:12.090Z,10.00
2022-11-18T16:59:38.844Z,13.48
2022-11-18T17:02:06.748Z,13.57
2022-11-18T17:04:36.383Z,16.77
2022-11-18T17:07:03.513Z,13.18
2022-11-18T17:09:30.806Z,16.05
2022-11-18T17:12:01.313Z,21.70
2022-11-18T17:14:29.655Z,16.42
2022-11-18T17:16:57.712Z,19.73
2022-11-18T17:19:25.801Z,12.30
2022-11-18T17:21:53.009Z,14.02
2022-11-18T17:24:22.658Z,15.32
2022-11-18T17:26:51.205Z,17.73
2022-11-18T17:29:18.707Z,15.18
2022-11-18T17:31:45.789Z,13.05
2022-11-18T17:34:14.761Z,15.48
2022-11-18T17:36:42.578Z,10.30
2022-11-18T17:39:11.767Z,11.82
2022-11-18T17:41:57.569Z,13.55
2022-11-18T17:44:24.946Z,16.95
2022-11-18T17:46:52.403Z,8.93
2022-11-18T17:49:21.443Z,14.00
2022-11-18T17:51:51.652Z,8.15
2022-11-18T17:54:19.168Z,11.63
2022-11-18T17:56:47.536Z,13.40
2022-11-18T17:59:16.025Z,9.35
2022-11-18T18:01:43.116Z,9.32
2022-11-18T18:04:10.885Z,11.18
2022-11-18T18:06:37.682Z,12.77
2022-11-18T18:09:04.781Z,13.88
2022-11-18T18:11:31.620Z,11.10
2022-11-18T18:14:13.541Z,10.13
2022-11-18T18:16:49.986Z,11.80
2022-11-18T18:19:22.814Z,18.08
2022-11-18T18:21:50.085Z,13.18
2022-11-18T18:24:19.832Z,12.45
2022-11-18T18:26:47.529Z,11.80
2022-11-18T18:29:14.482Z,20.02
2022-11-18T18:31:41.408Z,15.35
2022-11-18T18:34:08.819Z,17.75
2022-11-18T18:36:35.726Z,16.88
2022-11-18T18:39:02.771Z,16.10
2022-11-18T18:41:30.450Z,16.92
2022-11-18T18:43:57.437Z,15.55
2022-11-18T18:46:30.464Z,14.15
2022-11-18T18:49:10.227Z,13.40
2022-11-18T18:51:42.317Z,14.52
2022-11-18T18:54:14.854Z,23.52
2022-11-18T18:56:42.469Z,13.63
2022-11-18T18:59:10.399Z,11.73
2022-11-18T19:01:39.956Z,14.20
2022-11-18T19:04:10.449Z,16.63
2022-11-18T19:06:59.377Z,11.25
2022-11-18T19:09:26.542Z,20.23
2022-11-18T19:12:12.340Z,13.52
2022-11-18T19:14:39.300Z,19.35
2022-11-18T19:17:10.567Z,21.50
2022-11-18T19:19:59.040Z,18.33
2022-11-18T19:22:26.311Z,14.75
2022-11-18T19:24:53.933Z,20.08
2022-11-18T19:27:21.865Z,17.33
2022-11-18T19:29:49.408Z,16.45
2022-11-18T19:32:16.485Z,13.70
2022-11-18T19:34:43.330Z,15.43
2022-11-18T19:37:10.121Z,11.43
2022-11-18T19:39:38.686Z,18.25
2022-11-18T19:42:05.976Z,18.58
2022-11-18T19:44:33.120Z,14.38
2022-11-18T19:46:59.871Z,18.05
2022-11-18T19:49:26.671Z,14.32
2022-11-18T19:51:53.608Z,15.35
2022-11-18T19:54:20.903Z,15.98
2022-11-18T19:56:48.010Z,18.42
2022-11-18T19:59:14.783Z,18.02
2022-11-18T20:01:41.818Z,16.48
2022-11-18T20:04:09.283Z,12.43
2022-11-18T20:06:37.157Z,18.92
2022-11-18T20:09:08.350Z,17.92
2022-11-18T20:11:35.389Z,21.08
2022-11-18T20:14:02.458Z,19.17
2022-11-18T20:16:29.315Z,14.65
2022-11-18T20:19:06.333Z,18.15
2022-11-18T20:21:34.882Z,11.68
2022-11-18T20:24:04.822Z,11.35
2022-11-18T20:26:34.790Z,17.77
2022-11-18T20:29:02.422Z,19.27
2022-11-18T20:31:29.898Z,28.58
2022-11-18T20:33:57.243Z,19.40
2022-11-18T20:36:33.002Z,15.52
2022-11-18T20:39:07.489Z,15.68
2022-11-18T20:41:36.631Z,22.13
2022-11-18T20:44:04.264Z,22.02
2022-11-18T20:46:31.372Z,16.75
2022-11-18T20:48:58.267Z,12.50
2022-11-18T20:51:28.022Z,12.40
2022-11-18T20:53:57.772Z,19.65
2022-11-18T20:56:27.455Z,15.27
2022-11-18T20:58:56.259Z,17.05
2022-11-18T21:01:26.993Z,12.90
2022-11-18T21:04:01.762Z,14.63
2022-11-18T21:06:31.559Z,18.55
2022-11-18T21:09:01.450Z,12.18
2022-11-18T21:11:29.372Z,16.85
2022-11-18T21:14:21.614Z,14.35
2022-11-18T21:16:51.728Z,18.42
2022-11-18T21:19:19.060Z,13.75
2022-11-18T21:21:45.981Z,21.30
2022-11-18T21:24:15.903Z,14.52
2022-11-18T21:26:44.654Z,10.93
2022-11-18T21:29:13.930Z,15.07
2022-11-18T21:31:41.541Z,15.60
2022-11-18T21:34:10.607Z,16.73
2022-11-18T21:36:44.815Z,13.43
2022-11-18T21:39:14.618Z,17.10
2022-11-18T21:41:41.429Z,12.82
2022-11-18T21:44:10.956Z,11.43
2022-11-18T21:46:40.512Z,14.75
2022-11-18T21:49:08.417Z,10.98
2022-11-18T21:51:36.447Z,16.80
2022-11-18T21:54:04.302Z,17.30
2022-11-18T21:56:32.172Z,15.75
2022-11-18T21:59:01.681Z,24.23
2022-11-18T22:01:31.845Z,16.50
2022-11-18T22:04:01.314Z,14.18
2022-11-18T22:06:31.666Z,15.95
2022-11-18T22:08:58.947Z,18.67
2022-11-18T22:11:26.116Z,13.98
2022-11-18T22:13:53.710Z,11.20
2022-11-18T22:16:23.576Z,21.35
2022-11-18T22:18:58.808Z,14.32
2022-11-18T22:21:27.117Z,16.98
2022-11-18T22:23:58.126Z,18.08
2022-11-18T22:26:25.101Z,11.93
2022-11-18T22:28:57.754Z,16.65
2022-11-18T22:31:27.080Z,17.65
2022-11-18T22:33:55.709Z,11.55
2022-11-18T22:36:25.775Z,13.35
2022-11-18T22:38:53.830Z,10.88
2022-11-18T22:41:42.565Z,10.25
2022-11-18T22:44:11.037Z,12.30
2022-11-18T22:46:39.809Z,13.82
2022-11-18T22:49:08.378Z,15.25
2022-11-18T22:51:36.955Z,19.15
2022-11-18T22:54:36.574Z,16.92
2022-11-18T22:56:54.236Z,15.95
2022-11-18T22:59:21.555Z,13.50
2022-11-18T23:01:51.788Z,9.45
2022-11-18T23:04:18.868Z,14.65
2022-11-18T23:06:45.661Z,17.33
2022-11-18T23:09:12.610Z,14.50
2022-11-18T23:11:57.891Z,11.73
2022-11-18T23:16:51.523Z,14.25
2022-11-18T23:19:19.064Z,8.80
2022-11-18T23:21:46.487Z,12.00
2022-11-18T23:24:19.335Z,13.90
2022-11-18T23:26:47.462Z,9.48
2022-11-18T23:29:16.001Z,11.48
2022-11-18T23:31:45.014Z,16.92
2022-11-18T23:34:14.498Z,15.95
2022-11-18T23:36:42.380Z,12.90
2022-11-18T23:39:09.483Z,11.48
2022-11-18T23:41:36.799Z,14.63
2022-11-18T23:44:05.017Z,8.55
2022-11-18T23:46:32.350Z,16.02
2022-11-18T23:48:59.210Z,11.25
2022-11-18T23:51:26.674Z,10.23
2022-11-18T23:53:57.581Z,14.93
2022-11-18T23:56:27.172Z,10.82
2022-11-18T23:58:55.987Z,11.95
